createdAt,value
2023-02-19T00:03:13.006Z,85.42
2023-02-19T00:08:14.636Z,85.12
2023-02-19T00:13:16.305Z,84.83
2023-02-19T00:18:18.009Z,84.93
2023-02-19T00:23:19.770Z,84.62
2023-02-19T00:28:21.824Z,84.33
2023-02-19T00:33:23.553Z,84.54
2023-02-19T00:38:25.199Z,84.31
2023-02-19T00:43:27.138Z,84.34
2023-02-19T00:48:28.794Z,84.90
2023-02-19T00:53:30.485Z,84.86
2023-02-19T00:58:32.343Z,85.09
2023-02-19T01:03:35.106Z,84.60
2023-02-19T01:08:37.735Z,85.22
2023-02-19T01:13:40.247Z,85.17
2023-02-19T01:18:42.511Z,85.33
2023-02-19T01:23:45.234Z,85.09
2023-02-19T01:28:48.242Z,84.95
2023-02-19T01:33:51.969Z,85.77
2023-02-19T01:38:53.743Z,86.58
2023-02-19T01:44:01.138Z,88.72
2023-02-19T01:49:16.404Z,89.19
2023-02-19T01:54:20.235Z,89.23
2023-02-19T01:59:22.193Z,90.12
2023-02-19T02:04:23.870Z,90.66
2023-02-19T02:09:46.696Z,91.19
2023-02-19T02:14:48.569Z,91.67
2023-02-19T02:20:17.897Z,92.55
2023-02-19T02:25:38.362Z,92.88
2023-02-19T02:30:43.007Z,93.00
2023-02-19T02:35:48.813Z,93.55
2023-02-19T02:40:51.751Z,93.91
2023-02-19T02:45:53.957Z,94.81
2023-02-19T02:51:24.350Z,95.37
2023-02-19T02:56:40.319Z,95.44
2023-02-19T03:02:06.130Z,95.45
2023-02-19T03:07:09.778Z,95.23
2023-02-19T03:12:34.157Z,95.65
2023-02-19T03:18:06.367Z,95.78
2023-02-19T03:23:09.641Z,96.43
2023-02-19T03:28:13.104Z,96.53
2023-02-19T03:33:19.568Z,97.16
2023-02-19T03:38:24.170Z,97.39
2023-02-19T03:43:41.476Z,97.08
2023-02-19T03:49:06.835Z,96.92
2023-02-19T03:54:12.744Z,96.77
2023-02-19T03:59:37.332Z,96.43
2023-02-19T04:04:49.757Z,96.57
2023-02-19T04:09:52.430Z,96.15
2023-02-19T04:15:01.507Z,95.54
2023-02-19T04:20:07.511Z,95.46
2023-02-19T04:25:09.415Z,95.53
2023-02-19T04:30:13.600Z,95.78
2023-02-19T04:35:15.256Z,96.14
2023-02-19T04:40:17.064Z,96.21
2023-02-19T04:45:18.726Z,96.45
2023-02-19T04:50:20.481Z,96.79
2023-02-19T04:55:25.378Z,97.15
2023-02-19T05:00:27.135Z,97.42
2023-02-19T05:05:28.772Z,97.92
2023-02-19T05:10:30.660Z,98.76
2023-02-19T05:15:32.386Z,99.08
2023-02-19T05:20:34.010Z,99.85
2023-02-19T05:25:35.719Z,100.00
2023-02-19T05:30:37.413Z,100.00
2023-02-19T05:35:43.735Z,100.00
2023-02-19T05:40:46.102Z,100.00
2023-02-19T05:45:47.783Z,99.68
2023-02-19T05:50:49.473Z,99.07
2023-02-19T05:55:51.114Z,98.99
2023-02-19T06:00:52.927Z,98.44
2023-02-19T06:05:54.534Z,97.49
2023-02-19T06:10:56.185Z,97.27
2023-02-19T06:15:57.857Z,97.09
2023-02-19T06:21:07.117Z,97.45
2023-02-19T06:26:16.076Z,97.41
2023-02-19T06:31:19.165Z,97.31
2023-02-19T06:36:21.571Z,97.35
2023-02-19T06:41:23.196Z,97.16
2023-02-19T06:46:24.879Z,96.01
2023-02-19T06:51:28.786Z,95.80
2023-02-19T06:56:39.540Z,96.18
2023-02-19T07:01:41.158Z,96.08
2023-02-19T07:06:42.917Z,95.97
2023-02-19T07:11:44.547Z,95.79
2023-02-19T07:16:47.463Z,96.59
2023-02-19T07:21:49.171Z,97.20
2023-02-19T07:26:50.870Z,97.65
2023-02-19T07:31:52.494Z,97.53
2023-02-19T07:36:54.148Z,96.06
2023-02-19T07:41:55.810Z,93.25
2023-02-19T07:47:06.946Z,94.90
2023-02-19T07:52:08.684Z,94.90
2023-02-19T07:57:10.787Z,94.98
2023-02-19T08:02:35.732Z,95.39
2023-02-19T08:07:37.803Z,93.54
2023-02-19T08:12:57.871Z,93.63
2023-02-19T08:17:59.497Z,94.97
2023-02-19T08:23:01.167Z,95.19
2023-02-19T08:28:03.490Z,95.76
2023-02-19T08:33:06.865Z,95.19
2023-02-19T08:38:10.124Z,95.17
2023-02-19T08:43:13.831Z,95.73
2023-02-19T08:48:15.592Z,96.02
2023-02-19T08:53:17.209Z,95.48
2023-02-19T08:58:19.301Z,95.58
2023-02-19T09:03:20.900Z,95.26
2023-02-19T09:08:22.560Z,95.80
2023-02-19T09:13:24.162Z,96.26
2023-02-19T09:18:26.252Z,95.72
2023-02-19T09:23:28.313Z,93.46
2023-02-19T09:28:29.930Z,93.60
2023-02-19T09:33:31.570Z,94.17
2023-02-19T09:38:33.189Z,93.33
2023-02-19T09:43:34.903Z,93.69
2023-02-19T09:48:36.534Z,93.89
2023-02-19T09:53:42.504Z,92.91
2023-02-19T09:58:48.937Z,91.64
2023-02-19T10:03:50.662Z,91.17
2023-02-19T10:09:16.905Z,89.64
2023-02-19T10:14:24.898Z,90.50
2023-02-19T10:19:26.601Z,90.18
2023-02-19T10:24:29.728Z,88.99
2023-02-19T10:29:31.357Z,87.93
2023-02-19T10:34:33.004Z,88.14
2023-02-19T10:39:46.755Z,88.19
2023-02-19T10:44:53.399Z,86.54
2023-02-19T10:49:57.402Z,83.63
2023-02-19T10:55:17.357Z,83.78
2023-02-19T11:00:23.190Z,85.14
2023-02-19T11:05:25.132Z,85.91
2023-02-19T11:10:28.418Z,82.93
2023-02-19T11:15:35.589Z,81.97
2023-02-19T11:20:37.362Z,82.49
2023-02-19T11:25:45.617Z,83.31
2023-02-19T11:30:48.184Z,83.35
2023-02-19T11:36:21.053Z,82.41
2023-02-19T11:41:59.637Z,82.74
2023-02-19T11:47:22.959Z,80.66
2023-02-19T11:52:33.659Z,80.33
2023-02-19T11:57:39.270Z,77.83
2023-02-19T12:03:02.153Z,78.32
2023-02-19T12:08:14.073Z,73.57
2023-02-19T12:13:42.226Z,74.46
2023-02-19T12:19:00.115Z,74.27
2023-02-19T12:24:23.091Z,74.41
2023-02-19T12:29:47.900Z,72.92
2023-02-19T12:35:10.833Z,73.27
2023-02-19T12:40:43.553Z,75.41
2023-02-19T12:45:45.219Z,75.52
2023-02-19T12:50:49.754Z,70.87
2023-02-19T12:55:52.434Z,73.99
2023-02-19T13:00:59.025Z,72.54
2023-02-19T13:06:21.638Z,73.11
2023-02-19T13:11:37.015Z,72.63
2023-02-19T13:16:40.300Z,71.42
2023-02-19T13:22:01.075Z,71.51
2023-02-19T13:27:41.751Z,69.14
2023-02-19T13:33:03.726Z,70.47
2023-02-19T13:43:26.122Z,68.65
2023-02-19T13:48:29.385Z,68.58
2023-02-19T13:53:44.622Z,68.03
2023-02-19T13:58:56.098Z,68.80
2023-02-19T14:04:09.930Z,68.61
2023-02-19T14:09:36.255Z,67.40
2023-02-19T14:14:43.608Z,68.20
2023-02-19T14:19:48.859Z,68.22
2023-02-19T14:24:52.812Z,67.42
2023-02-19T14:29:54.477Z,67.82
2023-02-19T14:34:58.088Z,69.25
2023-02-19T14:39:59.768Z,68.96
2023-02-19T14:45:03.731Z,70.61
2023-02-19T14:50:29.371Z,70.46
2023-02-19T14:55:34.237Z,70.44
2023-02-19T15:00:40.975Z,67.64
2023-02-19T15:05:44.913Z,68.55
2023-02-19T15:10:46.680Z,68.79
2023-02-19T15:15:48.448Z,68.97
2023-02-19T15:20:51.059Z,68.50
2023-02-19T15:25:52.892Z,69.31
2023-02-19T15:30:57.619Z,70.53
2023-02-19T15:36:01.752Z,70.28
2023-02-19T15:41:03.856Z,72.54
2023-02-19T15:46:22.720Z,72.36
2023-02-19T15:51:45.806Z,72.41
2023-02-19T15:56:49.729Z,72.53
2023-02-19T16:01:51.484Z,72.07
2023-02-19T16:06:59.555Z,71.39
2023-02-19T16:12:02.324Z,71.75
2023-02-19T16:17:10.214Z,73.02
2023-02-19T16:22:13.251Z,73.75
2023-02-19T16:27:31.751Z,74.00
2023-02-19T16:32:33.446Z,75.46
2023-02-19T16:37:40.793Z,75.86
2023-02-19T16:42:52.237Z,77.08
2023-02-19T16:47:54.067Z,77.57
2023-02-19T16:53:03.730Z,78.51
2023-02-19T16:58:05.361Z,79.21
2023-02-19T17:03:19.951Z,79.38
2023-02-19T17:08:43.632Z,79.11
2023-02-19T17:13:48.714Z,78.18
2023-02-19T17:18:51.254Z,78.09
2023-02-19T17:23:54.123Z,78.07
2023-02-19T17:28:57.342Z,77.71
2023-02-19T17:34:02.175Z,78.10
2023-02-19T17:39:07.162Z,78.27
2023-02-19T17:44:09.057Z,78.47
2023-02-19T17:49:11.315Z,78.90
2023-02-19T17:54:13.007Z,78.81
2023-02-19T17:59:16.393Z,78.88
2023-02-19T18:04:19.656Z,78.58
2023-02-19T18:09:22.389Z,78.31
2023-02-19T18:14:24.159Z,79.12
2023-02-19T18:19:26.039Z,80.12
2023-02-19T18:24:27.715Z,80.19
2023-02-19T18:29:31.871Z,80.65
2023-02-19T18:34:34.974Z,80.67
2023-02-19T18:39:36.709Z,81.39
2023-02-19T18:44:38.911Z,81.60
2023-02-19T18:49:40.941Z,81.30
2023-02-19T18:54:45.118Z,81.71
2023-02-19T18:59:47.034Z,82.98
2023-02-19T19:04:52.864Z,81.86
2023-02-19T19:09:54.721Z,83.14
2023-02-19T19:14:56.839Z,82.51
2023-02-19T19:19:58.476Z,83.49
2023-02-19T19:25:00.127Z,83.49
2023-02-19T19:30:02.194Z,83.52
2023-02-19T19:35:04.423Z,83.91
2023-02-19T19:40:06.723Z,84.23
2023-02-19T19:45:09.468Z,84.67
2023-02-19T19:50:13.164Z,85.39
2023-02-19T19:55:16.042Z,86.00
2023-02-19T20:00:18.944Z,86.01
2023-02-19T20:05:20.801Z,85.62
2023-02-19T20:10:22.441Z,85.85
2023-02-19T20:15:24.091Z,85.90
2023-02-19T20:20:25.770Z,86.19
2023-02-19T20:25:27.561Z,85.55
2023-02-19T20:30:29.540Z,86.32
2023-02-19T20:35:38.685Z,86.46
2023-02-19T20:40:47.053Z,86.44
2023-02-19T20:45:48.726Z,86.98
2023-02-19T20:50:50.409Z,86.41
2023-02-19T20:55:52.127Z,86.68
2023-02-19T21:00:55.808Z,87.29
2023-02-19T21:05:57.468Z,88.47
2023-02-19T21:10:59.076Z,88.05
2023-02-19T21:16:00.967Z,87.48
2023-02-19T21:21:05.601Z,87.11
2023-02-19T21:26:07.260Z,86.82
2023-02-19T21:31:09.215Z,86.31
2023-02-19T21:36:11.230Z,86.00
2023-02-19T21:41:13.097Z,85.63
2023-02-19T21:46:18.902Z,85.28
2023-02-19T21:51:21.695Z,84.64
2023-02-19T21:56:25.205Z,84.44
2023-02-19T22:01:30.355Z,84.30
2023-02-19T22:06:32.181Z,84.84
2023-02-19T22:11:36.998Z,85.19
2023-02-19T22:16:38.649Z,85.48
2023-02-19T22:21:44.638Z,86.05
2023-02-19T22:26:47.052Z,85.90
2023-02-19T22:31:48.777Z,85.95
2023-02-19T22:36:50.705Z,85.79
2023-02-19T22:41:52.941Z,85.71
2023-02-19T22:46:56.519Z,85.39
2023-02-19T22:52:07.967Z,85.71
2023-02-19T22:57:09.661Z,85.16
2023-02-19T23:02:11.433Z,85.23
2023-02-19T23:07:13.039Z,84.76
2023-02-19T23:12:14.794Z,85.07
2023-02-19T23:17:16.459Z,85.53
2023-02-19T23:22:18.129Z,85.77
2023-02-19T23:27:20.061Z,85.51
2023-02-19T23:32:23.726Z,85.84
2023-02-19T23:37:25.319Z,85.73
2023-02-19T23:42:26.959Z,85.62
2023-02-19T23:47:30.560Z,86.45
2023-02-19T23:52:32.353Z,86.45
2023-02-19T23:57:34.243Z,85.92
